Terminal Aerodrome Forecast
Issued by NWS St Louis, MO

Home | Current Version | Previous Version | Text Only | Print | Product List | Glossary On
Versions: 1 2 3 4 5 6 7 8 9 10 11 12 13 14 15 16 17 18 19 20 21
000
FTUS43 KLSX 291300 AAB
TAFCOU
TAF AMD
KCOU 291334Z 2914/3012 19007KT P6SM -SHRA SCT025 BKN060
     FM291700 20009KT P6SM VCTS SCT025CB BKN100
     FM300200 24007KT 3SM TSRA SCT015 BKN025CB
     FM301100 28008KT P6SM VCSH SCT007 BKN015=

USA.gov is the U.S. government's official web portal to all federal, state and local government web resources and services.